Time;durP1;ratioP1;P1;durP2;ratioP2;P2;SDS_P1;SDS_P2;PMS_P1;PMS_P2;Temp;Humidity;BMP_temperature;BMP_pressure;BME280_temperature;BME280_humidity;BME280_pressure;Samples;Min_cycle;Max_cycle;Signal;HPM_P1;HPM_P2
2020/12/18 00:01:51;;;;;;;19.97;6.53;;;7.10;99.90;;;-143.32;100.00;97350.41;4839830;29;20447;-90
2020/12/18 00:08:13;;;;;;;12.60;6.20;;;7.00;99.90;;;-143.32;100.00;97352.44;4841332;29;20546;-92
2020/12/18 00:11:53;;;;;;;20.80;6.90;;;6.90;99.90;;;-143.32;100.00;97352.44;4847441;29;20531;-92
2020/12/18 00:14:59;;;;;;;15.10;5.70;;;6.90;99.90;;;-143.32;100.00;97348.34;4849896;29;20544;-92
2020/12/18 00:17:38;;;;;;;11.83;5.13;;;6.80;99.90;;;-143.32;100.00;97374.94;4850800;29;20526;-94
2020/12/18 00:34:56;;;;;;;18.10;5.20;;;6.80;99.90;;;-143.32;100.00;97356.53;4730683;30;20500;-90
2020/12/18 00:37:56;;;;;;;13.27;5.20;;;6.80;99.90;;;-143.32;100.00;97372.91;4765011;30;20473;-92
2020/12/18 00:43:33;;;;;;;13.83;5.67;;;6.70;99.90;;;-143.32;100.00;97352.44;4838553;29;20519;-93
2020/12/18 00:50:52;;;;;;;19.50;5.50;;;6.70;99.90;;;-143.32;100.00;97323.81;4796349;30;20461;-91
2020/12/18 00:57:40;;;;;;;16.47;5.77;;;6.70;99.90;;;-143.32;100.00;97366.78;4851377;29;20466;-91
2020/12/18 01:01:00;;;;;;;;;;;;;;;;;;;;;
2020/12/18 01:08:18;;;;;;;16.13;4.90;;;6.70;99.90;;;-143.32;100.00;97338.13;4757260;30;20514;-91
2020/12/18 01:26:30;;;;;;;;;;;;;;;;;;;;;
2020/12/18 01:37:08;;;;;;;;;;;;;;;;;;;;;
2020/12/18 01:44:32;;;;;;;9.60;4.30;;;6.60;99.90;;;-143.32;100.00;97344.25;4846160;29;20419;-91
2020/12/18 02:03:05;;;;;;;;;;;;;;;;;;;;;
2020/12/18 02:06:29;;;;;;;14.53;4.57;;;6.60;99.90;;;-143.32;100.00;97401.53;4737969;30;20497;-91
2020/12/18 02:16:54;;;;;;;9.60;3.90;;;6.70;99.90;;;-143.32;100.00;97374.94;4744923;30;20425;-93
2020/12/18 02:19:35;;;;;;;12.87;4.33;;;6.60;99.90;;;-143.32;100.00;97340.19;4851881;29;20455;-93
2020/12/18 02:23:09;;;;;;;9.93;3.77;;;6.60;99.90;;;-143.32;100.00;97350.41;4850623;29;20857;-93
2020/12/18 02:26:06;;;;;;;4.43;3.30;;;6.70;99.90;;;-143.32;100.00;97368.81;4815190;29;20514;-93
2020/12/18 02:29:05;;;;;;;13.80;3.67;;;6.70;99.90;;;-143.32;100.00;97352.44;4847965;29;20459;-93
2020/12/18 02:32:15;;;;;;;;;;;;;;;;;;;;;
2020/12/18 02:39:36;;;;;;;16.57;5.33;;;6.50;99.90;;;-143.32;100.00;97350.41;4795727;30;20998;-92
2020/12/18 02:58:04;;;;;;;;;;;;;;;;;;;;;
2020/12/18 03:01:21;;;;;;;11.40;3.70;;;6.50;99.90;;;-143.32;100.00;97344.25;4777746;30;20458;-93
2020/12/18 03:11:14;;;;;;;6.17;2.60;;;6.50;99.90;;;-143.32;100.00;97362.69;4792735;30;20492;-94
2020/12/18 03:25:44;;;;;;;;;;;;;;;;;;;;;
2020/12/18 03:50:58;;;;;;;10.93;4.73;;;6.50;99.90;;;-143.32;100.00;97374.94;4802367;29;20462;-92
2020/12/18 04:01:06;;;;;;;12.17;4.70;;;6.30;99.90;;;-143.32;100.00;97393.38;4848720;29;20576;-91
2020/12/18 04:45:41;;;;;;;;;;;;;;;;;;;;;
2020/12/18 04:49:26;;;;;;;;;;;;;;;;;;;;;
2020/12/18 07:25:47;;;;;;;13.30;5.70;;;5.90;99.90;;;-143.32;100.00;97399.50;4704432;30;20496;-92
2020/12/18 08:47:08;;;;;;;;;;;;;;;;;;;;;
2020/12/18 08:50:29;;;;;;;12.50;5.80;;;7.60;99.90;;;-143.32;100.00;97301.31;4875872;29;20861;-89
2020/12/18 08:53:18;;;;;;;13.00;4.10;;;7.60;99.90;;;-143.32;100.00;97268.56;4876259;29;20537;-92
2020/12/18 08:55:48;;;;;;;13.00;4.30;;;7.60;99.90;;;-143.32;100.00;97299.25;4873839;29;20450;-90
2020/12/18 08:58:15;;;;;;;16.53;4.37;;;7.70;99.90;;;-143.32;100.00;97268.56;4873675;29;20446;-92
2020/12/18 09:00:42;;;;;;;12.70;4.23;;;7.70;99.90;;;-143.32;100.00;97264.47;4876995;29;20466;-91
2020/12/18 09:03:19;;;;;;;12.77;4.53;;;7.60;99.90;;;-143.32;100.00;97274.72;4873038;29;20446;-93
2020/12/18 09:06:07;;;;;;;11.43;3.93;;;7.80;99.90;;;-143.32;100.00;97278.81;4865799;29;20513;-91
2020/12/18 09:13:01;;;;;;;13.90;3.93;;;7.90;99.90;;;-143.32;99.81;97235.84;4872648;29;20429;-93
2020/12/18 09:15:32;;;;;;;16.47;6.03;;;7.90;99.90;;;-143.32;99.70;97219.47;4876654;29;20477;-90
2020/12/18 09:18:11;;;;;;;13.43;4.60;;;8.00;99.90;;;-143.32;99.42;97248.13;4882586;29;20454;-91
2020/12/18 09:42:27;;;;;;;11.17;3.13;;;8.40;99.90;;;-143.32;98.40;97258.34;4813809;29;20464;-93
2020/12/18 09:58:46;;;;;;;12.60;3.93;;;8.40;99.90;;;-143.32;97.90;97211.28;4740787;30;20480;-90
2020/12/18 10:09:33;;;;;;;10.70;3.30;;;8.20;99.90;;;-143.32;97.58;97188.78;4744399;30;20440;-91
2020/12/18 10:15:54;;;;;;;12.50;2.80;;;8.50;99.90;;;-143.32;97.55;97178.56;4754507;30;20476;-92
2020/12/18 10:24:11;;;;;;;15.43;3.50;;;8.70;99.90;;;-143.32;96.47;97190.84;4843638;29;20528;-92
2020/12/18 10:27:49;;;;;;;11.60;3.77;;;8.70;99.90;;;-143.32;96.08;97244.03;4840046;29;20515;-92
2020/12/18 11:03:36;;;;;;;6.13;2.53;;;9.30;99.90;;;-143.32;93.68;97106.97;4795511;29;20426;-93
2020/12/18 11:29:03;;;;;;;8.03;2.60;;;9.80;99.90;;;-143.32;91.94;97086.50;4706340;30;20515;-92
2020/12/18 11:35:19;;;;;;;14.20;2.90;;;9.90;99.90;;;-143.32;91.18;97055.81;4763308;30;20497;-91
2020/12/18 11:41:29;;;;;;;7.73;2.27;;;10.00;99.90;;;-143.32;91.33;97008.78;4820955;29;20425;-91
2020/12/18 11:43:59;;;;;;;8.43;2.77;;;10.00;99.90;;;-143.32;91.17;97078.31;4862247;29;20454;-90
2020/12/18 11:46:35;;;;;;;10.77;4.00;;;10.00;99.90;;;-143.32;90.89;97066.06;4872038;29;20577;-91
2020/12/18 11:49:05;;;;;;;11.77;2.60;;;10.00;99.90;;;-143.32;90.89;97084.47;4857504;29;20457;-90
2020/12/18 11:51:32;;;;;;;12.73;3.67;;;10.00;99.90;;;-143.32;90.46;97092.66;4869301;29;20462;-91
2020/12/18 12:05:04;;;;;;;9.23;2.60;;;10.20;1.00;;;-143.32;89.27;97014.91;5047694;23;20996;-90
2020/12/18 12:07:31;;;;;;;5.17;2.53;;;10.20;99.90;;;-143.32;89.37;97004.69;4868149;29;20473;-91
2020/12/18 12:09:58;;;;;;;6.50;2.53;;;10.30;99.90;;;-143.32;88.97;97039.47;4867718;29;20501;-89
2020/12/18 12:12:27;;;;;;;5.17;2.00;;;10.30;1.00;;;-143.32;89.24;96990.38;4868398;29;20509;-91
2020/12/18 12:14:56;;;;;;;4.40;2.27;;;10.40;17.90;;;-143.32;89.08;97010.81;4867525;29;20887;-91
2020/12/18 12:17:25;;;;;;;6.70;2.80;;;10.40;1.00;;;-143.32;88.96;97002.63;4870588;29;20439;-90
2020/12/18 12:19:56;;;;;;;7.40;2.33;;;10.40;1.00;;;-143.32;88.60;96990.38;4872979;29;20533;-91
2020/12/18 12:22:25;;;;;;;7.77;2.77;;;10.40;99.90;;;-143.32;88.75;97027.19;4873435;29;20423;-91
2020/12/18 12:24:58;;;;;;;4.83;2.40;;;10.40;1.00;;;-143.32;89.16;97035.38;4873551;29;20471;-88
2020/12/18 12:27:29;;;;;;;8.03;2.23;;;10.30;1.00;;;-143.32;89.29;97027.19;4869536;29;20538;-90
2020/12/18 12:30:04;;;;;;;6.00;2.83;;;10.40;36.20;;;-143.32;89.16;97027.19;4874089;29;20422;-91
2020/12/18 12:32:35;;;;;;;7.57;2.67;;;10.40;1.00;;;-143.32;88.69;97027.19;4856860;29;20893;-88
2020/12/18 12:35:02;;;;;;;5.53;2.60;;;10.40;99.90;;;-143.32;88.54;96992.41;4870242;29;20479;-91
2020/12/18 12:37:30;;;;;;;6.97;2.70;;;10.40;99.90;;;-143.32;88.28;97010.81;4868845;29;20817;-90
2020/12/18 12:39:56;;;;;;;4.47;3.07;;;10.50;99.90;;;-143.32;88.43;96955.59;4867766;29;20884;-94
2020/12/18 12:42:23;;;;;;;14.60;2.97;;;10.50;99.90;;;-143.32;88.56;96994.47;4868079;29;20458;-90
2020/12/18 12:44:50;;;;;;;5.93;2.97;;;10.50;99.90;;;-143.32;88.42;96994.47;4867104;29;20530;-91
2020/12/18 12:47:17;;;;;;;12.73;2.63;;;10.50;99.90;;;-143.32;87.97;96982.19;4867202;29;20526;-91
2020/12/18 12:49:44;;;;;;;5.50;2.63;;;10.50;1.00;;;-143.32;88.06;96963.78;4866929;29;20494;-90
2020/12/18 12:52:12;;;;;;;6.57;2.43;;;10.50;18.10;;;-143.32;88.45;96986.28;4867401;29;20454;-91
2020/12/18 12:54:40;;;;;;;15.50;3.50;;;10.50;99.90;;;-143.32;88.24;97023.09;4865809;29;20929;-92
2020/12/18 12:57:09;;;;;;;7.77;2.77;;;10.50;99.90;;;-143.32;87.98;97049.69;4868961;29;20466;-90
2020/12/18 12:59:36;;;;;;;13.27;3.23;;;10.50;1.00;;;-143.32;87.60;96998.53;4867191;29;20779;-92
2020/12/18 13:02:03;;;;;;;9.73;3.20;;;10.60;1.00;;;-143.32;87.84;97016.97;4866310;29;20461;-90
2020/12/18 13:04:30;;;;;;;11.07;1.90;;;10.50;1.00;;;-143.32;87.57;97023.09;4863570;29;20541;-90
2020/12/18 13:06:58;;;;;;;2.23;1.60;;;10.50;99.90;;;-143.32;87.07;97014.91;4864807;29;20490;-91
2020/12/18 13:09:25;;;;;;;5.57;2.17;;;10.50;99.90;;;-143.32;87.30;97045.59;4863231;29;20438;-92
2020/12/18 13:11:52;;;;;;;9.70;2.10;;;10.50;99.90;;;-143.32;86.88;96978.09;4865003;29;20454;-90
2020/12/18 13:18:04;;;;;;;4.73;2.13;;;10.50;99.90;;;-143.32;86.06;97004.69;4866061;29;20418;-90
2020/12/18 13:20:34;;;;;;;7.53;2.70;;;10.50;52.20;;;-143.32;86.51;96961.72;4858340;29;20755;-89
2020/12/18 13:23:01;;;;;;;10.33;3.03;;;10.60;99.90;;;-143.32;86.57;96978.09;4864857;29;20450;-90
2020/12/18 13:25:27;;;;;;;8.13;2.10;;;10.60;99.90;;;-143.32;86.42;97000.59;4862824;29;20453;-91
2020/12/18 13:27:55;;;;;;;10.10;2.40;;;10.60;99.90;;;-143.32;86.67;97014.91;4863337;29;20486;-91
2020/12/18 13:30:23;;;;;;;4.63;2.00;;;10.60;99.90;;;-143.32;86.20;96976.03;4862278;29;20462;-91
2020/12/18 13:32:53;;;;;;;4.77;1.70;;;10.60;99.90;;;-143.32;85.33;97002.63;4862555;29;20489;-91
2020/12/18 13:35:23;;;;;;;4.67;2.27;;;10.60;1.00;;;-143.32;85.78;97027.19;4863306;29;20905;-93
2020/12/18 13:37:55;;;;;;;6.90;2.53;;;10.60;1.00;;;-143.32;85.86;97025.13;4867061;29;21024;-91
2020/12/18 13:40:22;;;;;;;5.83;1.90;;;10.60;4.10;;;-143.32;85.71;97016.97;4861727;29;20438;-91
2020/12/18 13:46:35;;;;;;;6.93;2.00;;;10.50;84.80;;;-143.32;84.97;97004.69;4854679;29;20490;-92
2020/12/18 13:51:37;;;;;;;13.03;3.90;;;10.60;1.00;;;-143.32;85.49;96978.09;5142990;23;20509;-90
2020/12/18 13:54:04;;;;;;;12.33;3.40;;;10.70;1.00;;;-143.32;85.83;96986.28;4864369;29;20887;-91
2020/12/18 13:56:31;;;;;;;6.30;2.63;;;10.60;1.00;;;-143.32;85.04;96994.47;4861296;29;20446;-87
2020/12/18 13:59:04;;;;;;;6.00;2.00;;;10.60;1.00;;;-143.32;84.88;96978.09;4861138;29;20469;-91
2020/12/18 14:05:15;;;;;;;7.10;2.20;;;10.60;1.00;;;-143.32;85.32;97000.59;4860921;29;20903;-88
2020/12/18 14:07:41;;;;;;;6.97;2.60;;;10.60;1.00;;;-143.32;85.42;96943.31;4861008;29;20482;-88
2020/12/18 14:10:08;;;;;;;4.03;2.37;;;10.50;1.00;;;-143.32;85.23;97004.69;4860677;29;20434;-90
2020/12/18 14:12:37;;;;;;;5.07;1.90;;;10.50;1.00;;;-143.32;85.26;97006.72;4862829;29;20591;-89
2020/12/18 14:15:15;;;;;;;3.43;1.93;;;10.50;1.00;;;-143.32;85.34;97006.72;4864685;29;20465;-89
2020/12/18 14:17:42;;;;;;;6.63;2.13;;;10.50;1.00;;;-143.32;85.88;96996.50;4873439;29;20778;-89
2020/12/18 14:20:08;;;;;;;4.37;2.30;;;10.50;1.00;;;-143.32;85.90;97010.81;4862461;29;20461;-91
2020/12/18 14:22:36;;;;;;;10.87;2.60;;;10.40;91.90;;;-143.32;86.39;97043.56;4861269;29;20438;-88
2020/12/18 14:25:03;;;;;;;11.23;2.40;;;10.40;99.90;;;-143.32;86.67;97027.19;4860604;29;20458;-89
2020/12/18 14:27:30;;;;;;;5.63;2.43;;;10.30;99.90;;;-143.32;87.01;96986.28;4860905;29;20502;-88
2020/12/18 14:29:58;;;;;;;5.73;2.40;;;10.30;1.00;;;-143.32;87.40;97045.59;4860381;29;20514;-87
2020/12/18 14:32:28;;;;;;;3.60;2.13;;;10.20;1.00;;;-143.32;87.19;97016.97;4860898;29;20453;-89
2020/12/18 14:34:55;;;;;;;6.70;2.57;;;10.20;1.00;;;-143.32;87.24;97041.50;4860141;29;20542;-89
2020/12/18 14:37:21;;;;;;;6.30;2.03;;;10.00;1.00;;;-143.32;86.96;97059.91;4860879;29;20446;-88
2020/12/18 14:39:52;;;;;;;2.90;1.93;;;10.10;1.00;;;-143.32;87.01;97033.31;4860975;29;20510;-88
2020/12/18 14:42:19;;;;;;;4.20;2.10;;;10.10;1.00;;;-143.32;86.73;97051.72;4860232;29;20510;-87
2020/12/18 14:44:45;;;;;;;4.23;2.20;;;10.10;99.90;;;-143.32;86.72;97012.88;4860347;29;20462;-88
2020/12/18 14:47:15;;;;;;;5.67;2.27;;;10.10;99.90;;;-143.32;86.94;97031.28;4859782;29;20537;-89
2020/12/18 14:49:41;;;;;;;5.37;2.30;;;10.00;99.90;;;-143.32;87.00;97045.59;4860054;29;20454;-89
2020/12/18 14:52:30;;;;;;;4.00;2.13;;;10.00;1.00;;;-143.32;87.02;96996.50;5122572;27;844196;-88
2020/12/18 14:54:57;;;;;;;5.43;2.10;;;10.00;1.00;;;-143.32;87.33;97031.28;5132024;28;20241;-88
2020/12/18 14:57:24;;;;;;;6.20;2.30;;;9.90;1.00;;;-143.32;87.50;97041.50;5131912;28;20452;-87
2020/12/18 14:59:50;;;;;;;9.63;3.97;;;9.90;1.00;;;-143.32;87.73;97078.31;5131756;28;20443;-92
2020/12/18 15:02:17;;;;;;;6.63;2.50;;;9.80;9.80;;;-143.32;88.00;97023.09;5132174;28;20448;-92
2020/12/18 15:04:44;;;;;;;4.17;2.50;;;9.80;77.10;;;-143.32;87.84;97074.25;5132138;28;20447;-93
2020/12/18 15:07:11;;;;;;;4.13;2.00;;;9.70;6.30;;;-143.32;87.37;97006.72;5132178;28;20448;-90
2020/12/18 15:09:39;;;;;;;6.20;2.43;;;9.80;1.00;;;-143.32;87.70;97090.59;5133171;28;20548;-92
2020/12/18 15:15:46;;;;;;;5.27;2.30;;;9.70;44.30;;;-143.32;87.96;97045.59;5132131;28;20449;-90
2020/12/18 15:18:13;;;;;;;4.87;2.10;;;9.60;45.90;;;-143.32;88.27;97088.56;5132263;28;20437;-91
2020/12/18 15:20:51;;;;;;;6.63;2.40;;;9.60;99.90;;;-143.32;88.33;97104.91;5132093;28;20447;-93
2020/12/18 16:43:13;;;;;;;6.63;4.33;;;8.50;99.90;;;-143.32;93.00;97223.56;1290398;26;20513;-90
2020/12/18 16:45:40;;;;;;;28.07;15.57;;;8.60;37.90;;;-143.32;93.04;97203.09;4996219;28;20481;-89
2020/12/18 16:48:07;;;;;;;12.43;5.67;;;8.50;1.00;;;-143.32;93.20;97174.47;4996140;28;20521;-89
2020/12/18 16:50:34;;;;;;;7.83;4.10;;;8.50;99.90;;;-143.32;93.11;97174.47;4996163;28;20487;-89
2020/12/18 16:56:41;;;;;;;7.53;3.30;;;8.40;99.90;;;-143.32;94.03;97194.94;4996137;28;20952;-89
2020/12/18 16:59:09;;;;;;;8.60;3.20;;;8.30;99.90;;;-143.32;93.78;97188.78;4996252;28;20451;-91
2020/12/18 17:01:45;;;;;;;5.03;3.13;;;8.30;99.90;;;-143.32;93.96;97164.25;4996159;28;20453;-91
2020/12/18 17:04:12;;;;;;;8.53;4.13;;;8.30;99.90;;;-143.32;94.20;97217.44;4996280;28;20439;-88
2020/12/18 17:06:48;;;;;;;6.83;3.40;;;8.30;99.90;;;-143.32;94.24;97221.53;4996218;28;20541;-90
2020/12/18 17:12:58;;;;;;;5.30;3.33;;;8.30;99.90;;;-143.32;94.71;97196.97;4995782;28;20506;-91
2020/12/18 17:15:30;;;;;;;8.13;3.50;;;8.30;99.90;;;-143.32;94.91;97194.94;4994633;28;20478;-90
2020/12/18 17:17:59;;;;;;;9.93;3.30;;;8.20;99.90;;;-143.32;95.25;97225.63;4995531;28;20439;-89
2020/12/18 17:20:27;;;;;;;6.67;3.60;;;8.20;99.90;;;-143.32;95.26;97196.97;4995444;28;20442;-88
2020/12/18 17:26:34;;;;;;;10.00;3.10;;;8.10;1.00;;;-143.32;95.61;97233.78;4995425;28;20467;-90
2020/12/18 17:29:01;;;;;;;5.70;2.97;;;8.10;1.00;;;-143.32;95.78;97231.75;4995343;28;20505;-92
2020/12/18 17:31:29;;;;;;;3.50;2.57;;;8.00;1.00;;;-143.32;96.08;97186.75;4995924;28;20521;-90
2020/12/18 17:33:56;;;;;;;3.60;3.20;;;8.10;1.00;;;-143.32;96.25;97205.16;4996198;28;20451;-91
2020/12/18 17:36:23;;;;;;;8.97;3.33;;;8.00;1.00;;;-143.32;96.53;97217.44;4995193;28;20497;-90
2020/12/18 17:38:50;;;;;;;9.20;2.93;;;7.90;1.00;;;-143.32;96.67;97213.34;4996121;28;20463;-92
2020/12/18 17:41:17;;;;;;;5.70;3.10;;;7.80;1.00;;;-143.32;96.67;97244.03;4995155;28;20502;-91
2020/12/18 17:43:44;;;;;;;3.73;2.50;;;7.80;1.00;;;-143.32;96.90;97231.75;4995446;28;20849;-89
2020/12/18 17:46:13;;;;;;;5.90;2.90;;;7.90;1.00;;;-143.32;96.87;97209.25;4996506;28;20455;-91
2020/12/18 17:48:42;;;;;;;13.67;3.20;;;7.90;1.00;;;-143.32;96.77;97237.88;4995644;28;20466;-89
2020/12/18 17:51:09;;;;;;;5.57;3.07;;;7.90;1.00;;;-143.32;97.05;97219.47;4995693;28;20541;-90
2020/12/18 17:57:17;;;;;;;20.23;8.60;;;7.90;1.00;;;-143.32;97.42;97244.03;4995326;28;20438;-89
2020/12/18 17:59:44;;;;;;;15.40;7.27;;;7.80;1.00;;;-143.32;97.72;97246.06;4996142;28;20470;-90
2020/12/18 18:02:11;;;;;;;4.27;3.70;;;7.80;1.00;;;-143.32;97.73;97254.25;4995206;28;20447;-89
2020/12/18 18:04:48;;;;;;;6.93;3.40;;;7.80;25.80;;;-143.32;98.20;97231.75;4994791;28;20502;-90
2020/12/18 18:11:00;;;;;;;15.93;3.00;;;7.70;70.90;;;-143.32;98.18;97262.44;4995394;28;20817;-90
2020/12/18 18:13:34;;;;;;;8.20;3.70;;;7.70;97.70;;;-143.32;98.46;97286.97;4995803;28;20906;-90
2020/12/18 18:16:13;;;;;;;12.80;3.53;;;7.70;99.90;;;-143.32;98.29;97262.44;4995594;28;20454;-93
2020/12/18 18:18:47;;;;;;;9.23;4.13;;;7.70;95.60;;;-143.32;97.93;97291.06;4995029;28;20426;-92
2020/12/18 18:21:15;;;;;;;3.60;2.73;;;7.80;68.30;;;-143.32;98.10;97258.34;4995601;28;20419;-92
2020/12/18 18:23:51;;;;;;;8.23;3.70;;;7.80;77.40;;;-143.32;98.19;97196.97;4994930;28;20505;-93
2020/12/18 18:26:21;;;;;;;6.93;4.03;;;7.80;80.90;;;-143.32;98.32;97264.47;4996346;28;20829;-94
2020/12/18 18:29:16;;;;;;;13.00;7.60;;;7.80;93.50;;;-143.32;98.31;97264.47;4995456;28;20439;-90
2020/12/18 18:31:49;;;;;;;7.00;3.80;;;7.80;99.90;;;-143.32;98.69;97262.44;4970716;28;20490;-93
2020/12/18 18:34:28;;;;;;;8.93;4.97;;;7.80;99.90;;;-143.32;98.72;97237.88;4995193;28;20447;-93
2020/12/18 18:37:24;;;;;;;8.53;5.00;;;8.00;99.90;;;-143.32;98.58;97219.47;4996191;28;20466;-91
2020/12/18 18:39:58;;;;;;;11.40;6.10;;;7.80;99.90;;;-143.32;98.72;97223.56;4996026;28;20455;-90
2020/12/18 18:46:21;;;;;;;8.07;4.07;;;7.80;99.90;;;-143.32;99.28;97237.88;4996033;28;20948;-93
2020/12/18 18:48:51;;;;;;;9.67;4.60;;;7.70;99.90;;;-143.32;99.41;97286.97;4995798;28;20439;-93
2020/12/18 18:51:18;;;;;;;21.63;11.17;;;7.60;99.90;;;-143.32;99.70;97264.47;4995725;28;20506;-92
2020/12/18 18:53:46;;;;;;;11.37;6.70;;;7.50;99.90;;;-143.32;100.00;97272.66;4996055;28;20799;-90
2020/12/18 18:56:28;;;;;;;11.97;5.80;;;7.50;99.90;;;-143.32;99.99;97301.31;4996142;28;20463;-92
2020/12/18 18:59:00;;;;;;;11.30;6.23;;;7.40;99.90;;;-143.32;100.00;97301.31;4996400;28;20526;-92
2020/12/18 19:01:31;;;;;;;15.63;9.47;;;7.30;99.90;;;-143.32;100.00;97231.75;4995888;28;20936;-93
2020/12/18 19:04:06;;;;;;;11.90;6.00;;;7.30;99.90;;;-143.32;100.00;97299.25;4997658;28;20454;-93
2020/12/18 19:07:02;;;;;;;12.30;6.30;;;7.40;99.90;;;-143.32;100.00;97284.94;4998253;28;20759;-91
2020/12/18 19:09:31;;;;;;;6.20;4.43;;;7.30;99.90;;;-143.32;100.00;97307.44;4997215;28;20798;-92
2020/12/18 19:11:58;;;;;;;8.97;5.77;;;7.40;99.90;;;-143.32;100.00;97289.03;4996675;28;20498;-92
2020/12/18 19:14:25;;;;;;;10.60;4.80;;;7.40;99.90;;;-143.32;100.00;97268.56;4996597;28;20443;-90
2020/12/18 19:16:53;;;;;;;7.53;4.90;;;7.40;99.90;;;-143.32;100.00;97280.84;4997415;28;20470;-91
2020/12/18 19:19:20;;;;;;;8.07;5.20;;;7.40;99.90;;;-143.32;100.00;97278.81;4996212;28;20495;-93
2020/12/18 19:21:47;;;;;;;7.20;4.50;;;7.30;99.90;;;-143.32;100.00;97274.72;4996929;28;20964;-92
2020/12/18 19:28:06;;;;;;;7.37;4.90;;;7.20;99.90;;;-143.32;100.00;97256.28;4996842;28;20418;-92
2020/12/18 19:30:36;;;;;;;7.00;4.30;;;7.00;99.90;;;-143.32;100.00;97309.50;4998475;28;20467;-94
2020/12/18 19:33:04;;;;;;;10.57;5.93;;;7.20;99.90;;;-143.32;100.00;97319.72;4997325;28;20447;-92
2020/12/18 19:35:36;;;;;;;9.53;7.17;;;7.20;99.90;;;-143.32;100.00;97286.97;4998172;28;20436;-91
2020/12/18 19:41:44;;;;;;;13.53;4.90;;;7.20;99.90;;;-143.32;100.00;97289.03;5000433;28;20933;-90
2020/12/18 19:44:12;;;;;;;7.17;5.17;;;7.20;99.90;;;-143.32;100.00;97291.06;5000437;28;20913;-92
2020/12/18 19:46:46;;;;;;;9.27;4.83;;;7.10;99.90;;;-143.32;100.00;97278.81;5001089;28;20478;-90
2020/12/18 19:49:26;;;;;;;7.93;4.93;;;7.10;99.90;;;-143.32;100.00;97276.75;5002169;28;20446;-90
2020/12/18 19:52:10;;;;;;;10.70;5.20;;;7.10;99.90;;;-143.32;100.00;97342.22;5006118;28;20910;-93
2020/12/18 19:58:18;;;;;;;7.73;5.60;;;7.10;99.90;;;-143.32;100.00;97299.25;5002470;28;20438;-91
2020/12/18 20:00:54;;;;;;;8.37;4.80;;;7.00;99.90;;;-143.32;100.00;97297.22;5002406;28;20546;-92
2020/12/18 20:03:23;;;;;;;8.30;5.27;;;7.00;99.90;;;-143.32;100.00;97301.31;5002179;28;20497;-93
2020/12/18 20:05:53;;;;;;;9.00;5.10;;;7.00;99.90;;;-143.32;100.00;97323.81;5001869;28;20459;-92
2020/12/18 20:12:03;;;;;;;8.90;5.03;;;7.00;99.90;;;-143.32;100.00;97319.72;5005684;28;20541;-92
2020/12/18 20:14:34;;;;;;;8.13;5.43;;;7.00;99.90;;;-143.32;100.00;97344.25;5005417;28;20511;-94
2020/12/18 20:17:17;;;;;;;;;;;;;;;;;;;;;
2020/12/18 20:19:47;;;;;;;11.43;5.13;;;6.90;99.90;;;-143.32;100.00;97278.81;5002025;28;20530;-92
2020/12/18 20:22:18;;;;;;;7.37;5.13;;;6.90;99.90;;;-143.32;100.00;97344.25;5000821;28;20443;-94
2020/12/18 20:24:45;;;;;;;10.40;5.60;;;6.90;99.90;;;-143.32;100.00;97284.94;5000290;28;20446;-90
2020/12/18 20:27:12;;;;;;;9.20;5.67;;;6.90;99.90;;;-143.32;100.00;97325.84;4999345;28;20432;-93
2020/12/18 20:29:40;;;;;;;9.57;7.67;;;7.00;99.90;;;-143.32;100.00;97315.63;4999083;28;20451;-92
2020/12/18 20:32:12;;;;;;;9.93;5.70;;;7.00;99.90;;;-143.32;100.00;97327.91;4999547;28;20486;-92
2020/12/18 20:34:45;;;;;;;11.60;5.70;;;6.90;99.90;;;-143.32;100.00;97334.03;5000043;28;20447;-89
2020/12/18 20:37:32;;;;;;;9.90;6.73;;;6.80;99.90;;;-143.32;100.00;97338.13;4998510;28;20478;-92
2020/12/18 20:48:04;;;;;;;10.93;6.23;;;6.70;99.90;;;-143.32;100.00;97366.78;4935576;28;20841;-91
2020/12/18 20:50:42;;;;;;;9.60;6.73;;;6.70;99.90;;;-143.32;100.00;97319.72;5008521;28;20478;-94
2020/12/18 20:53:17;;;;;;;8.80;7.00;;;6.80;99.90;;;-143.32;100.00;97344.25;5008930;28;20450;-93
2020/12/18 20:56:04;;;;;;;9.13;6.80;;;6.90;99.90;;;-143.32;100.00;97344.25;5008716;28;20482;-92
2020/12/18 20:58:41;;;;;;;9.87;6.07;;;7.00;99.90;;;-143.32;100.00;97315.63;5007204;28;20443;-93
2020/12/18 21:01:21;;;;;;;10.33;6.27;;;6.80;99.90;;;-143.32;100.00;97338.13;5009031;28;20459;-90
2020/12/18 21:03:57;;;;;;;10.10;7.07;;;6.70;99.90;;;-143.32;100.00;97336.09;5008535;28;20426;-94
2020/12/18 21:06:32;;;;;;;8.83;6.50;;;6.80;99.90;;;-143.32;100.00;97329.94;5010144;28;20797;-92
2020/12/18 21:09:01;;;;;;;12.10;6.70;;;6.80;99.90;;;-143.32;100.00;97340.19;5007967;28;20427;-94
2020/12/18 21:11:30;;;;;;;11.77;7.30;;;6.80;99.90;;;-143.32;100.00;97334.03;5007220;28;20488;-92
2020/12/18 21:16:55;;;;;;;8.87;6.37;;;6.80;99.90;;;-143.32;100.00;97327.91;5008155;28;20443;-92
2020/12/18 21:22:11;;;;;;;14.87;7.23;;;6.70;99.90;;;-143.32;100.00;97340.19;4981296;28;20463;-92
2020/12/18 21:24:38;;;;;;;10.03;7.13;;;6.70;99.90;;;-143.32;100.00;97374.94;5006946;28;20455;-93
2020/12/18 21:27:13;;;;;;;13.83;7.53;;;6.80;99.90;;;-143.32;100.00;97340.19;5008610;28;20864;-92
2020/12/18 21:29:47;;;;;;;12.40;7.10;;;6.80;99.90;;;-143.32;100.00;97325.84;5008568;28;20461;-92
2020/12/18 21:32:16;;;;;;;13.53;7.33;;;6.80;99.90;;;-143.32;100.00;97325.84;5007709;28;20486;-92
2020/12/18 21:34:47;;;;;;;11.67;6.80;;;6.90;99.90;;;-143.32;100.00;97366.78;5007694;28;20463;-93
2020/12/18 21:37:23;;;;;;;13.60;7.20;;;6.80;99.90;;;-143.32;100.00;97299.25;5009262;28;20458;-91
2020/12/18 21:39:53;;;;;;;7.87;6.53;;;6.80;99.90;;;-143.32;100.00;97340.19;5009474;28;20447;-92
2020/12/18 21:42:21;;;;;;;14.40;8.27;;;6.90;99.90;;;-143.32;100.00;97332.00;5008790;28;20454;-91
2020/12/18 21:44:50;;;;;;;16.47;8.57;;;6.90;99.90;;;-143.32;100.00;97364.72;5007865;28;20522;-91
2020/12/18 21:47:22;;;;;;;12.97;7.60;;;6.80;99.90;;;-143.32;100.00;97340.19;5007961;28;20459;-91
2020/12/18 21:49:51;;;;;;;15.70;7.60;;;6.80;99.90;;;-143.32;100.00;97334.03;5008505;28;20470;-93
2020/12/18 21:52:24;;;;;;;11.40;7.83;;;6.80;99.90;;;-143.32;100.00;97342.22;5008312;28;20517;-92
2020/12/18 21:54:53;;;;;;;10.97;7.80;;;6.80;99.90;;;-143.32;100.00;97401.53;5008157;28;20938;-92
2020/12/18 21:57:25;;;;;;;12.70;8.83;;;6.80;99.90;;;-143.32;100.00;97332.00;5009384;28;20477;-91
2020/12/18 21:59:56;;;;;;;10.67;7.70;;;6.70;99.90;;;-143.32;100.00;97315.63;5006379;28;20467;-93
2020/12/18 22:02:25;;;;;;;16.87;7.77;;;6.70;99.90;;;-143.32;100.00;97329.94;5006691;28;20419;-93
2020/12/18 22:04:54;;;;;;;22.10;12.33;;;6.70;99.90;;;-143.32;100.00;97303.34;5009018;28;20447;-92
2020/12/18 22:07:27;;;;;;;17.20;10.00;;;6.70;99.90;;;-143.32;100.00;97364.72;5006581;28;20455;-90
2020/12/18 22:49:16;;;;;;;14.60;8.80;;;6.70;99.90;;;-143.32;100.00;97332.00;6082668;22;20425;-94
2020/12/18 22:51:44;;;;;;;13.10;7.60;;;6.70;99.90;;;-143.32;100.00;97346.31;5030883;28;20493;-94
2020/12/18 22:54:18;;;;;;;11.77;8.17;;;6.90;99.90;;;-143.32;100.00;97297.22;5031444;28;20454;-92
2020/12/18 22:56:46;;;;;;;13.07;8.03;;;7.00;99.90;;;-143.32;100.00;97332.00;5030071;28;20905;-94
2020/12/18 22:59:13;;;;;;;13.00;8.17;;;7.00;99.90;;;-143.32;100.00;97338.13;5030012;28;20450;-94
2020/12/18 23:04:29;;;;;;;11.03;8.17;;;7.00;99.90;;;-143.32;100.00;97325.84;5030327;28;20434;-91
2020/12/18 23:14:01;;;;;;;16.47;9.27;;;6.80;99.90;;;-143.32;100.00;97348.34;4985915;28;20434;-93
2020/12/18 23:16:33;;;;;;;15.20;8.33;;;6.80;99.90;;;-143.32;100.00;97350.41;5035723;28;20517;-92
2020/12/18 23:19:06;;;;;;;12.87;9.23;;;6.70;99.90;;;-143.32;100.00;97350.41;5034132;28;20488;-95
2020/12/18 23:21:44;;;;;;;12.30;8.30;;;6.70;99.90;;;-143.32;100.00;97334.03;5035783;28;20442;-92
2020/12/18 23:24:22;;;;;;;12.90;9.00;;;6.70;99.90;;;-143.32;100.00;97338.13;5033785;28;20472;-93
2020/12/18 23:27:06;;;;;;;16.37;8.90;;;6.80;99.90;;;-143.32;100.00;97284.94;5034495;28;20472;-93
2020/12/18 23:29:35;;;;;;;14.77;8.83;;;6.60;99.90;;;-143.32;100.00;97315.63;5034696;28;20449;-92
2020/12/18 23:32:14;;;;;;;12.60;8.50;;;6.90;99.90;;;-143.32;100.00;97370.88;5033698;28;20489;-92